Pagrindinis puslapis
METAR-TAF:

METAR-TAF

Oro uostai :

Kamranio oro uostas

Kamranis, Vietnamas

platuma: 11-59-53N, ilguma: 109-13-10E, Aukštis: 12 m

Dabartinis oras

Ataskaita buvo paskelbta 12 minutes, ne 19:00 UTC
Vėjas 6 kt iš Šiaurės
Temperatūra 27°C
Drėgmė 84%
Slėgis 1012 hPa
Matomumas 10 km arba daugiau
Mažai debesys ne aukštis 1300 ft

METAR: VVCR 251900Z 01006KT 9999 FEW013 27/24 Q1012 NOSIG

Laikas: 02:12 (19:12 UTC)

Prognozė

Ataskaita buvo paskelbta 2 valandos ir 12 minutes, ne 17:00 UTC
Prognozė galioja nuo 25 metu 18 UTC su 26 metu 18 UTC
Vėjas 10 kt iš Šiaurės/Šiaurės Rytų
Matomumas 10 km arba daugiau
Mažai debesys ne aukštis 1500 ft
Išsisklaidę debesys ne aukštis 6000 ft

TAF: VVCR 251700Z 2518/2618 03010KT 9999 FEW015 SCT060

Orai ataskaitas ir orų prognozės (METAR, TAF).

turimą stotys yra geltonos ir raudonos taškus žemėlapyje.

Perkelti pele per norėdami pamatyti stoties vardą.

Tada spustelėkite, norėdami matyti oro stebėjimo ir prognozės.

Norėdami pakeisti žemėlapį: spustelėkite ant žalios mygtukų su juodo kryžiaus žemyn,; žalią mygtuką su brūkšneliu, jei norite nutolinti; arba žalių rodyklių gretimoms žemėlapius.


METAR-TAF: